オークランド の空港の天気 - METARとTAF

オークランド国際空港 ( NZAA / AKL ) - ニュージーランド オークランド|オークランド
飛行場実況気象(Metar)
観測時間07/18 16:30 NZST (07/18 04:30 UTC)
風向・風速西 3m/s
視程10km以上
天気現象
少しの雲 雲底高度 1490m
全天の8割程度の雲 雲底高度 2440m
気温14℃
湿度82%
気圧1014hPa
METARNZAA 180430Z AUTO 27006KT 9999 FEW049/// BKN080/// 14/11 Q1014 NOSIG
過去の天気等 Google飛行場航空写真 Wunderground天気予報

過去48時間のMETAR

飛行場予報(TAF)
発表時間: 7/18 11:03 NZST (7/17 23:03 UTC)
予報対象時間: 18日12時 NZST ~ 19日12時 NZST
風向・風速北東 3m/s
視程10km以上
天気現象弱いしゅう雨
全天の4割程度の雲 雲底高度 1220m
18日12時 NZST ~ 18日14時 NZST に徐々に
風向・風速西 5m/s
18日20時 NZST ~ 18日22時 NZST に徐々に
風向・風速北東 3m/s
19日8時 NZST ~ 19日12時 NZST に一時的に
視程5000m
天気現象しゅう雨
少しの塔状積雲 雲底高度 910m
TAF NZAA 172303Z 1800/1900 04005KT 9999 -SHRA SCT040
BECMG 1800/1802 26010KT
BECMG 1808/1810 04005KT
TEMPO 1820/1900 5000 SHRA FEW030TCU